< < Back
Terminal Aerodrome Forecast


Current Version              Previous Versions:   1  2  3  4  5  6  7  8  9  

Terminal Aerodrome Forecast

632
FTUS42 KTAE 232300
TAFDHN
TAF
KDHN 232320Z 2400/2424 32006KT P6SM FEW070
     FM240300 02003KT P6SM SKC
      TEMPO 2410/2412 5SM BR
     FM241400 19007KT P6SM SCT060=



Latest METAR

631
SAUS70 KWBC 241800 RRB
MTRDHN
METAR KDHN 241753Z 20006KT 10SM BKN055 BKN070 28/14 A3000 RMK AO2 SLP153
T02780139 10283 20178 58014


USA.gov is the U.S. government's official web portal to all federal, state and local government web resources and services.